Sindal, Denmark

5:49 AM CEST on October 02, 2014 (GMT +0200)
Kvissel Braending | Change Station
CLOSE
Current Station
Personal Weather Station
Location: Frederikshavn, DK
Elevation: 33 ft
Nearby Weather Stations

Elev 33 ft 57.47 °N, 10.43 °E | Updated 9 minutes ago

Mostly Cloudy
Mostly Cloudy
56.4 °F
Feels Like 56.4 °F
N
3.8
Wind Variable Wind from SW
Gusts 12.0 mph

Today
High -- | Low -- °F
--% Chance of Precip.
Yesterday
High -- | Low -- °F
Precip. -- in
7:24 AM 6:51 PM
First Quarter, 54% visible
Pressure 30.24 in
Visibility 1.6 miles
Clouds Few 600 ft
Mostly Cloudy 1200 ft
Dew Point 53 °F
Humidity 87%
Rainfall 0.00 in
Snow Depth Not available.
UV 0 out of 12
Pollen Not available.
Air Quality Not available.
Flu Activity Not available.
METAR EKYT 020320Z 25005KT 2500 BR FEW006 BKN012 15/15 Q1024

More Conditions Fewer Conditions

Pressure 30.24 in
Visibility 1.6 miles
Clouds Few 600 ft
Mostly Cloudy 1200 ft
Dew Point 53 °F
Humidity 87%
Rainfall 0.00 in
Snow Depth Not available.
UV 0 out of 12
Pollen Not available.
Air Quality Not available.
Flu Activity Not available.
METAR EKYT 020320Z 25005KT 2500 BR FEW006 BKN012 15/15 Q1024

More Conditions Fewer Conditions

10-Day Weather Forecast

Almanac

Astronomy

Oct. 02, 2014 Rise Set
Actual Time 7:24 AM CEST 6:51 PM CEST
Civil Twilight 6:46 AM CEST 7:29 PM CEST
Nautical Twilight 6:00 AM CEST 8:14 PM CEST
Astronomical Twilight 5:13 AM CEST 9:01 PM CEST
Moon 3:49 PM CEST No Moon Set
Length of Visible Light 12h 43m
Length of Day
11h 26m
Tomorrow will be 4m 53s shorter.
First Quarter, 54% of the Moon is Illuminated
Oct 1
First Quarter
Oct 8
Full
Oct 15
Last Quarter
Oct 23
New
Oct 30
First Quarter

Yesterday's Extremes

Country Highs Country Lows

Community

WunderPhotos

Upload Photos

1,758,170 photos uploaded!

Nearby

Snow Depth

Not available.

Earthquake Activity

City Distance Mag. Time & Date
No recent earthquake activity has been reported nearby.
Minimum magnitude displayed is 2.5.

Coastal Water Temperatures

Place Temperature
No Stations Reporting

Nearby Weather Stations